地図

経路データ

SID SEASON NUMBER BASIN SUBBASIN NAME ISO_TIME NATURE LAT LON WMO_WIND WMO_PRES WMO_AGENCY TRACK_TYPE DIST2LAND LANDFALL IFLAG USA_AGENCY USA_ATCF_ID USA_LAT USA_LON USA_RECORD USA_STATUS USA_WIND USA_PRES USA_SSHS USA_R34_NE USA_R34_SE USA_R34_SW USA_R34_NW USA_R50_NE USA_R50_SE USA_R50_SW USA_R50_NW USA_R64_NE USA_R64_SE USA_R64_SW USA_R64_NW USA_POCI USA_ROCI USA_RMW USA_EYE TOKYO_LAT TOKYO_LON TOKYO_GRADE TOKYO_WIND TOKYO_PRES TOKYO_R50_DIR TOKYO_R50_LONG TOKYO_R50_SHORT TOKYO_R30_DIR TOKYO_R30_LONG TOKYO_R30_SHORT TOKYO_LAND CMA_LAT CMA_LON CMA_CAT CMA_WIND CMA_PRES HKO_LAT HKO_LON HKO_CAT HKO_WIND HKO_PRES NEWDELHI_LAT NEWDELHI_LON NEWDELHI_GRADE NEWDELHI_WIND NEWDELHI_PRES NEWDELHI_CI NEWDELHI_DP NEWDELHI_POCI REUNION_LAT REUNION_LON REUNION_TYPE REUNION_WIND REUNION_PRES REUNION_TNUM REUNION_CI REUNION_RMW REUNION_R34_NE REUNION_R34_SE REUNION_R34_SW REUNION_R34_NW REUNION_R50_NE REUNION_R50_SE REUNION_R50_SW REUNION_R50_NW REUNION_R64_NE REUNION_R64_SE REUNION_R64_SW REUNION_R64_NW BOM_LAT BOM_LON BOM_TYPE BOM_WIND BOM_PRES BOM_TNUM BOM_CI BOM_RMW BOM_R34_NE BOM_R34_SE BOM_R34_SW BOM_R34_NW BOM_R50_NE BOM_R50_SE BOM_R50_SW BOM_R50_NW BOM_R64_NE BOM_R64_SE BOM_R64_SW BOM_R64_NW BOM_ROCI BOM_POCI BOM_EYE BOM_POS_METHOD BOM_PRES_METHOD NADI_LAT NADI_LON NADI_CAT NADI_WIND NADI_PRES WELLINGTON_LAT WELLINGTON_LON WELLINGTON_WIND WELLINGTON_PRES DS824_LAT DS824_LON DS824_STAGE DS824_WIND DS824_PRES TD9636_LAT TD9636_LON TD9636_STAGE TD9636_WIND TD9636_PRES TD9635_LAT TD9635_LON TD9635_WIND TD9635_PRES TD9635_ROCI NEUMANN_LAT NEUMANN_LON NEUMANN_CLASS NEUMANN_WIND NEUMANN_PRES MLC_LAT MLC_LON MLC_CLASS MLC_WIND MLC_PRES USA_GUST BOM_GUST BOM_GUST_PER REUNION_GUST REUNION_GUST_PER USA_SEAHGT USA_SEARAD_NE USA_SEARAD_SE USA_SEARAD_SW USA_SEARAD_NW STORM_SPEED STORM_DIR
1940040S13054 1940 10 SI MM NOT_NAMED 1940-02-09 06:00:00 NR -12.7000 54.1000 reunion main 450 410 _____O________ -1 -12.7000 54.1000 99 9.90000 9 228
1940040S13054 1940 10 SI MM NOT_NAMED 1940-02-09 09:00:00 NR -12.9957 53.7587 main 410 361 _____P________ -1 -12.9957 53.7587 99 9 228
1940040S13054 1940 10 SI MM NOT_NAMED 1940-02-09 12:00:00 NR -13.2880 53.4194 main 361 325 _____P________ -1 -13.2880 53.4194 99 9 229
1940040S13054 1940 10 SI MM NOT_NAMED 1940-02-09 15:00:00 NR -13.5739 53.0853 main 325 314 _____P________ -1 -13.5739 53.0853 99 5 229
1940040S13054 1940 10 SI MM NOT_NAMED 1940-02-09 18:00:00 NR -13.6201 53.0275 main 314 291 _____P____O___ -1 -13.8502 52.7594 99 -12.7000 54.1000 4 4 228
1940040S13054 1940 10 SI MM NOT_NAMED 1940-02-09 21:00:00 NR -13.8495 52.7692 main 291 238 _____P____P___ -1 -14.1139 52.4448 99 -13.3207 53.4179 4 8 228
1940040S13054 1940 10 SI MM NOT_NAMED 1940-02-10 00:00:00 NR -14.1651 52.4113 main 233 179 _____P____P___ -1 -14.3621 52.1446 99 -13.9023 52.7668 4 10 228
1940040S13054 1940 10 SI MM NOT_NAMED 1940-02-10 03:00:00 NR -14.4997 52.0221 main 179 136 _____P____P___ -1 -14.5918 51.8620 99 -14.4077 52.1822 4 10 229
1940040S13054 1940 10 SI MM NOT_NAMED 1940-02-10 06:00:00 TS -14.8000 51.6556 reunion main 136 99 _____O___OO___ -1 -14.8000 51.6000 99 9.90000 -14.8000 51.7000 TC 65 -14.8000 51.7000 4 8 231
1940040S13054 1940 10 SI MM NOT_NAMED 1940-02-10 09:00:00 TS -15.0068 51.3720 main 99 64 _____P___PP___ -1 -14.9851 51.3601 99 -14.9500 51.4526 TC 65 -15.0568 51.3437 4 6 234
1940040S13054 1940 10 SI MM NOT_NAMED 1940-02-10 12:00:00 TS -15.1589 51.1353 main 64 42 _____P___OP___ -1 -15.1506 51.1363 99 -15.1000 51.2000 TC 65 -15.2113 51.0856 4 5 237
1940040S13054 1940 10 SI MM NOT_NAMED 1940-02-10 15:00:00 TS -15.2872 50.9161 main 42 21 _____P___PP___ -1 -15.3014 50.9210 99 -15.2500 50.9425 TC 65 -15.3102 50.8848 4 5 239
1940040S13054 1940 10 SI MM NOT_NAMED 1940-02-10 18:00:00 TS -15.4141 50.7022 main 21 10 _____P___OO___ -1 -15.4422 50.7065 99 -15.4000 50.7000 TC 65 -15.4000 50.7000 4 5 236
1940040S13054 1940 10 SI MM NOT_NAMED 1940-02-10 21:00:00 TS -15.5578 50.4936 main 10 0 _____P___PP___ -1 -15.5778 50.4850 99 -15.5499 50.4999 TC 65 -15.5456 50.4959 4 5 235
1940040S13054 1940 10 SI MM NOT_NAMED 1940-02-11 00:00:00 TS -15.7016 50.2811 main 0 0 _____P___OP___ -1 -15.7128 50.2487 99 -15.7000 50.3000 TC 65 -15.6920 50.2945 4 5 236
1940040S13054 1940 10 SI MM NOT_NAMED 1940-02-11 03:00:00 TS -15.8456 50.0468 main 0 0 _____P___PP___ -1 -15.8520 49.9897 99 -15.8424 50.0799 TC 65 -15.8424 50.0709 4 6 239
1940040S13054 1940 10 SI MM NOT_NAMED 1940-02-11 06:00:00 TS -16.0000 49.7667 reunion main 10 0 _____O___OO___ -1 -16.0000 49.7000 99 9.90000 -16.0000 49.8000 TC 65 -16.0000 49.8000 4 7 241
1940040S13054 1940 10 SI MM NOT_NAMED 1940-02-11 09:00:00 TS -16.1798 49.4162 main 0 0 _____P___PP___ -1 -16.1715 49.3676 99 -16.2000 49.4226 TC 65 -16.1679 49.4584 4 8 243
1940040S13054 1940 10 SI MM NOT_NAMED 1940-02-11 12:00:00 TS -16.3639 49.0249 main 0 0 _____P___OP___ -1 -16.3491 49.0074 99 -16.4000 49.0000 TC 65 -16.3425 49.0674 4 8 245
1940040S13054 1940 10 SI MM NOT_NAMED 1940-02-11 15:00:00 TS -16.5342 48.6240 main 0 0 _____P___PP___ -1 -16.5319 48.6220 99 -16.5499 48.6073 TC 65 -16.5209 48.6427 4 9 246
1940040S13054 1940 10 SI MM NOT_NAMED 1940-02-11 18:00:00 TS -16.7064 48.2045 main 0 0 _____P___OO___ -1 -16.7193 48.2136 99 -16.7000 48.2000 TC 65 -16.7000 48.2000 4 9 246
1940040S13054 1940 10 SI MM NOT_NAMED 1940-02-11 21:00:00 TS -16.8910 47.7715 main 0 0 _____P___PP___ -1 -16.9105 47.7849 99 -16.9000 47.7575 TC 65 -16.8625 47.7720 4 9 246
1940040S13054 1940 10 SI MM NOT_NAMED 1940-02-12 00:00:00 TS -17.0773 47.3224 main 0 0 _____P___OP___ -1 -17.1048 47.3381 99 -17.1000 47.3000 TC 65 -17.0271 47.3293 4 9 247
1940040S13054 1940 10 SI MM NOT_NAMED 1940-02-12 03:00:00 TS -17.2490 46.8683 main 0 0 _____P___PP___ -1 -17.3015 46.8757 99 -17.2423 46.8572 TC 65 -17.2031 46.8719 4 10 248
1940040S13054 1940 10 SI MM NOT_NAMED 1940-02-12 06:00:00 TS -17.4333 46.4000 reunion main 0 0 _____O___OO___ -1 -17.5000 46.4000 99 9.90000 -17.4000 46.4000 TC 65 -17.4000 46.4000 4 10 246
1940040S13054 1940 10 SI MM NOT_NAMED 1940-02-12 09:00:00 TS -17.6722 45.8910 main 0 0 _____P___PP___ -1 -17.7453 45.8430 99 -17.6349 45.9075 TC 65 -17.6362 45.9225 4 11 243
1940040S13054 1940 10 SI MM NOT_NAMED 1940-02-12 12:00:00 TS -17.9302 45.3628 main 0 0 _____P___OP___ -1 -17.9986 45.2584 99 -17.9000 45.4000 TC 65 -17.8920 45.4300 4 11 243
1940040S13054 1940 10 SI MM NOT_NAMED 1940-02-12 15:00:00 TS -18.1835 44.8320 main 0 0 _____P___PP___ -1 -18.2490 44.6661 99 -18.1498 44.9073 TC 65 -18.1518 44.9225 4 11 244
1940040S13054 1940 10 SI MM NOT_NAMED 1940-02-12 18:00:00 TS -18.4287 44.2954 main 0 0 _____P___OO___ -1 -18.4862 44.0861 99 -18.4000 44.4000 TC 65 -18.4000 44.4000 4 12 245
1940040S13054 1940 10 SI MM NOT_NAMED 1940-02-12 21:00:00 TS -18.6816 43.7295 main 46 46 _____P___PP___ -1 -18.6998 43.5389 99 -18.6649 43.8575 TC 65 -18.6802 43.7922 4 12 246
1940040S13054 1940 10 SI MM NOT_NAMED 1940-02-13 00:00:00 TS -18.9054 43.1754 main 101 101 _____P___OP___ -1 -18.8798 43.0449 99 -18.9000 43.3000 TC 65 -18.9363 43.1814 4 11 248
1940040S13054 1940 10 SI MM NOT_NAMED 1940-02-13 03:00:00 TS -19.0836 42.6508 main 157 157 _____P___PP___ -1 -19.0165 42.6251 99 -19.1102 42.6977 TC 65 -19.1240 42.6297 4 9 254
1940040S13054 1940 10 SI MM NOT_NAMED 1940-02-13 06:00:00 TS -19.1667 42.2333 reunion main 209 209 _____O___OO___ -1 -19.1000 42.3000 99 9.90000 -19.2000 42.2000 TC 65 -19.2000 42.2000 4 6 270
1940040S13054 1940 10 SI MM NOT_NAMED 1940-02-13 09:00:00 TS -19.0818 41.9894 main 224 221 _____P___PP___ -1 -19.0460 42.1260 99 -19.1098 41.9172 TC 65 -19.0896 41.9249 4 4 308
1940040S13054 1940 10 SI MM NOT_NAMED 1940-02-13 12:00:00 TS -18.9024 41.8755 main 228 225 _____P___OP___ -1 -18.9334 42.0451 99 -18.9000 41.8000 TC 65 -18.8738 41.7814 4 4 341
1940040S13054 1940 10 SI MM NOT_NAMED 1940-02-13 15:00:00 TS -18.6823 41.8452 main 234 221 _____P___PP___ -1 -18.7833 42.0408 99 -18.6424 41.7475 TC 65 -18.6212 41.7472 4 4 0
1940040S13054 1940 10 SI MM NOT_NAMED 1940-02-13 18:00:00 TS -18.4722 41.8990 main 221 211 _____P___OO___ -1 -18.6165 42.0969 99 -18.4000 41.8000 TC 65 -18.4000 41.8000 4 4 23
1940040S13054 1940 10 SI MM NOT_NAMED 1940-02-13 21:00:00 TS -18.3249 42.0018 main 211 200 _____P___PP___ -1 -18.4539 42.1970 99 -18.2625 41.9200 TC 65 -18.2581 41.8884 4 3 45
1940040S13054 1940 10 SI MM NOT_NAMED 1940-02-14 00:00:00 TS -18.2271 42.1594 main 190 179 _____P___OP___ -1 -18.3164 42.3250 99 -18.2000 42.1000 TC 65 -18.1650 42.0533 4 4 64
1940040S13054 1940 10 SI MM NOT_NAMED 1940-02-14 03:00:00 TS -18.1730 42.3363 main 179 158 _____P___PP___ -1 -18.2248 42.4646 99 -18.1549 42.2776 TC 65 -18.1394 42.2665 4 4 86
1940040S13054 1940 10 SI MM NOT_NAMED 1940-02-14 06:00:00 TS -18.2000 42.5333 reunion main 158 137 _____O___OO___ -1 -18.2000 42.6000 99 9.90000 -18.2000 42.5000 TC 65 -18.2000 42.5000 4 4 114
1940040S13054 1940 10 SI MM NOT_NAMED 1940-02-14 09:00:00 TS -18.3466 42.7559 main 126 106 _____P___PP___ -1 -18.3248 42.7019 99 -18.3551 42.8074 TC 65 -18.3599 42.7585 4 6 131
1940040S13054 1940 10 SI MM NOT_NAMED 1940-02-14 12:00:00 TS -18.5716 42.9797 main 107 95 _____P___OP___ -1 -18.5119 42.8153 99 -18.6000 43.1000 TC 65 -18.6029 43.0237 4 6 142
1940040S13054 1940 10 SI MM NOT_NAMED 1940-02-14 15:00:00 TS -18.8424 43.1593 main 95 94 _____P___PP___ -1 -18.7480 42.9308 99 -18.8849 43.2950 TC 65 -18.8943 43.2522 4 6 154
1940040S13054 1940 10 SI MM NOT_NAMED 1940-02-14 18:00:00 TS -19.1400 43.2796 main 94 94 _____P___OO___ -1 -19.0199 43.0387 99 -19.2000 43.4000 TC 65 -19.2000 43.4000 4 6 164
1940040S13054 1940 10 SI MM NOT_NAMED 1940-02-14 21:00:00 TS -19.4379 43.3382 main 100 100 _____P___PP___ -1 -19.3142 43.1294 99 -19.5075 43.4450 TC 65 -19.4919 43.4401 4 6 177
1940040S13054 1940 10 SI MM NOT_NAMED 1940-02-15 00:00:00 TS -19.7350 43.3287 main 115 100 _____P___OP___ -1 -19.6179 43.1932 99 -19.8000 43.4000 TC 65 -19.7871 43.3931 4 6 187
1940040S13054 1940 10 SI MM NOT_NAMED 1940-02-15 03:00:00 TS -20.0179 43.2607 main 100 99 _____P___PP___ -1 -19.9175 43.2200 99 -20.0725 43.2875 TC 65 -20.0638 43.2744 4 6 199
1940040S13054 1940 10 SI MM NOT_NAMED 1940-02-15 06:00:00 TS -20.2667 43.1333 reunion main 100 94 _____O___OO___ -1 -20.2000 43.2000 99 9.90000 -20.3000 43.1000 TC 65 -20.3000 43.1000 4 5 215
1940040S13054 1940 10 SI MM NOT_NAMED 1940-02-15 09:00:00 TS -20.4498 42.9358 main 113 109 _____P___PP___ -1 -20.4248 43.0543 99 -20.4725 42.8650 TC 65 -20.4521 42.8880 4 5 231
1940040S13054 1940 10 SI MM NOT_NAMED 1940-02-15 12:00:00 TS -20.6020 42.6952 main 122 121 _____P___OP___ -1 -20.6408 42.8558 99 -20.6000 42.6000 TC 65 -20.5654 42.6297 4 5 238
1940040S13054 1940 10 SI MM NOT_NAMED 1940-02-15 15:00:00 TS -20.7367 42.4432 main 138 132 _____P___PP___ -1 -20.8468 42.6230 99 -20.6925 42.3499 TC 65 -20.6709 42.3566 4 5 239
1940040S13054 1940 10 SI MM NOT_NAMED 1940-02-15 18:00:00 TS -20.8807 42.1915 main 145 145 _____P___OO___ -1 -21.0421 42.3745 99 -20.8000 42.1000 TC 65 -20.8000 42.1000 4 6 235
1940040S13054 1940 10 SI MM NOT_NAMED 1940-02-15 21:00:00 TS -21.0719 41.9372 main 169 169 _____P___PP___ -1 -21.2257 42.1290 99 -20.9775 41.8276 TC 65 -21.0125 41.8551 4 6 228
1940040S13054 1940 10 SI MM NOT_NAMED 1940-02-16 00:00:00 TS -21.2823 41.7146 main 182 178 _____P___OP___ -1 -21.3970 41.9055 99 -21.2000 41.6000 TC 65 -21.2500 41.6382 4 6 220
1940040S13054 1940 10 SI MM NOT_NAMED 1940-02-16 03:00:00 TS -21.5001 41.5491 main 192 183 _____P___PP___ -1 -21.5552 41.7228 99 -21.4574 41.4475 TC 65 -21.4875 41.4770 4 5 209
1940040S13054 1940 10 SI MM NOT_NAMED 1940-02-16 06:00:00 TS -21.7000 41.4667 reunion main 183 180 _____O___OO___ -1 -21.7000 41.6000 99 9.90000 -21.7000 41.4000 TC 65 -21.7000 41.4000 4 4 185
1940040S13054 1940 10 SI MM NOT_NAMED 1940-02-16 09:00:00 TS -21.8548 41.5019 main 178 166 _____P___PP___ -1 -21.8342 41.6051 99 -21.8725 41.4624 TC 65 -21.8578 41.4383 4 3 155
1940040S13054 1940 10 SI MM NOT_NAMED 1940-02-16 12:00:00 TS -21.9805 41.6083 main 166 154 _____P___OP___ -1 -21.9541 41.6655 99 -22.0000 41.6000 TC 65 -21.9875 41.5595 4 3 136
1940040S13054 1940 10 SI MM NOT_NAMED 1940-02-16 15:00:00 TS -22.0893 41.7490 main 154 133 _____P___PP___ -1 -22.0620 41.7709 99 -22.1075 41.7500 TC 65 -22.0985 41.7260 4 3 127
1940040S13054 1940 10 SI MM NOT_NAMED 1940-02-16 18:00:00 TS -22.1867 41.9035 main 133 123 _____P___OO___ -1 -22.1600 41.9106 99 -22.2000 41.9000 TC 65 -22.2000 41.9000 4 3 127
1940040S13054 1940 10 SI MM NOT_NAMED 1940-02-16 21:00:00 TS -22.2872 42.0330 main 123 103 _____P___PP___ -1 -22.2505 42.0740 99 -22.3000 42.0000 TC 65 -22.3112 42.0251 4 3 129
1940040S13054 1940 10 SI MM NOT_NAMED 1940-02-17 00:00:00 TS -22.3836 42.1668 main 103 93 _____P___OP___ -1 -22.3358 42.2505 99 -22.4000 42.1000 TC 65 -22.4150 42.1501 4 3 126
1940040S13054 1940 10 SI MM NOT_NAMED 1940-02-17 03:00:00 TS -22.4790 42.3156 main 95 79 _____P___PP___ -1 -22.4182 42.4294 99 -22.5075 42.2425 TC 65 -22.5112 42.2750 4 3 124
1940040S13054 1940 10 SI MM NOT_NAMED 1940-02-17 06:00:00 TS -22.5667 42.4667 reunion main 79 70 _____O___OO___ -1 -22.5000 42.6000 99 9.90000 -22.6000 42.4000 TC 65 -22.6000 42.4000 4 3 121
1940040S13054 1940 10 SI MM NOT_NAMED 1940-02-17 09:00:00 TS -22.6214 42.5714 main 70 65 _____P___PP___ -1 -22.5362 42.6276 99 -22.6500 42.5575 TC 65 -22.6781 42.5291 4 2 119
1940040S13054 1940 10 SI MM NOT_NAMED 1940-02-17 12:00:00 TS -22.6712 42.6665 main 65 65 _____P___OP___ -1 -22.5635 42.6419 99 -22.7000 42.7000 TC 65 -22.7500 42.6576 4 2 125
1940040S13054 1940 10 SI MM NOT_NAMED 1940-02-17 15:00:00 TS -22.7360 42.7504 main 55 55 _____P___PP___ -1 -22.5938 42.6616 99 -22.7925 42.8075 TC 65 -22.8219 42.7823 4 2 133
1940040S13054 1940 10 SI MM NOT_NAMED 1940-02-17 18:00:00 TS -22.8129 42.8351 main 61 51 _____P___OO___ -1 -22.6388 42.7054 99 -22.9000 42.9000 TC 65 -22.9000 42.9000 4 2 134
1940040S13054 1940 10 SI MM NOT_NAMED 1940-02-17 21:00:00 TS -22.8998 42.9336 main 52 42 _____P___PP___ -1 -22.7102 42.7921 99 -23.0000 43.0000 TC 65 -22.9891 43.0087 4 3 132
1940040S13054 1940 10 SI MM NOT_NAMED 1940-02-18 00:00:00 TS -22.9842 43.0392 main 46 37 _____P___OP___ -1 -22.8199 42.9407 99 -23.1000 43.1000 TC 65 -23.0875 43.1099 4 3 129
1940040S13054 1940 10 SI MM NOT_NAMED 1940-02-18 03:00:00 TS -23.0877 43.1866 main 37 20 _____P___PP___ -1 -22.9793 43.1701 99 -23.2000 43.2000 TC 65 -23.1922 43.2061 4 4 124
1940040S13054 1940 10 SI MM NOT_NAMED 1940-02-18 06:00:00 TS -23.2333 43.4333 reunion main 20 0 _____O___OO___ -1 -23.2000 43.5000 99 9.90000 -23.3000 43.3000 TC 65 -23.3000 43.3000 4 8 120
1940040S13054 1940 10 SI MM NOT_NAMED 1940-02-18 09:00:00 NR -23.4896 43.9449 main 0 0 _____P________ -1 -23.4896 43.9449 99 TC 4 12 122
1940040S13054 1940 10 SI MM NOT_NAMED 1940-02-18 12:00:00 NR -23.8416 44.4970 main 0 0 _____P________ -1 -23.8416 44.4970 99 4 13 125
1940040S13054 1940 10 SI MM NOT_NAMED 1940-02-18 15:00:00 NR -24.2460 45.1433 main 0 0 _____P________ -1 -24.2460 45.1433 99 4 15 124
1940040S13054 1940 10 SI MM NOT_NAMED 1940-02-18 18:00:00 NR -24.6926 45.8701 main 0 0 _____P________ -1 -24.6926 45.8701 99 17 124
1940040S13054 1940 10 SI MM NOT_NAMED 1940-02-18 21:00:00 NR -25.1713 46.6638 main 0 0 _____P________ -1 -25.1713 46.6638 99 18 123
1940040S13054 1940 10 SI MM NOT_NAMED 1940-02-19 00:00:00 NR -25.6720 47.5099 main 83 83 _____P________ -1 -25.6720 47.5099 99 19 123
1940040S13054 1940 10 SI MM NOT_NAMED 1940-02-19 03:00:00 NR -26.1847 48.3938 main 186 186 _____P________ -1 -26.1847 48.3938 99 19 123
1940040S13054 1940 10 SI MM NOT_NAMED 1940-02-19 06:00:00 NR -26.7000 49.3000 reunion main 290 _____O________ -1 -26.7000 49.3000 99 9.90000 19 122

IBTrACS Databaseについて

本データベースは、米国NOAAが公開する1842年以降の世界の熱帯低気圧のベストトラックデータアーカイブInternational Best Track Archive for Climate Stewardship (IBTrACS)を、ウェブで閲覧しやすい形式に変換したものです。

最終更新日:2021-10-21